PWSweather.com
Personal Weather Stations
Station Observations
KMAMEDFI2
Medfield, MA 02052

Medfield, MA 02052

Lat: 42.1900822, Lon: -71.3296889

Elevation: 138

Station Type: Rainwise WS MK-III

http://www.medfieldweather.com

High Low Average
Temperature 88.4°F31.3°C 61.2°F16.2°C 74.7°F23.7°C
Dew Point 75.1°F23.9°C 60.5°F15.8°C 65.6°F18.7°C
Winds 4.0 mph 6.4 kmh Calm Calm 1.0 mph SSW1.6 kmh SSW
Wind Gusts 7.8 mph12.6 kmh -- 2.0 mph3.2 kmh
Humidity 99% 41% 77%
Pressure 30.04 in1017.3 mb 29.89 in1012.2 mb -
Precipitation 0.00 in0.0 mm - -
Hour Temp Dew Point Humidity Winds Wind Gusts Pressure Precip Precip Rate Daily Precip Total
12:00 AM 66.3°F19.1°C 66.0°F18.9°C 99% Calm Calm -- 29.91 in1012.9 mb - 0.00 in0.0 mm 0.00 in0.0 mm
12:10 AM 66.2°F19.0°C 65.9°F18.8°C 99% Calm Calm -- 29.91 in1012.9 mb - 0.00 in0.0 mm 0.00 in0.0 mm
12:20 AM 66.1°F18.9°C 65.8°F18.8°C 99% Calm Calm -- 29.90 in1012.5 mb - 0.00 in0.0 mm 0.00 in0.0 mm
12:30 AM 66.0°F18.9°C 65.7°F18.7°C 99% Calm Calm -- 29.90 in1012.5 mb - 0.00 in0.0 mm 0.00 in0.0 mm
12:40 AM 65.9°F18.8°C 65.3°F18.5°C 98% Calm Calm -- 29.90 in1012.5 mb - 0.00 in0.0 mm 0.00 in0.0 mm
12:50 AM 65.9°F18.8°C 65.3°F18.5°C 98% Calm Calm -- 29.91 in1012.9 mb - 0.00 in0.0 mm 0.00 in0.0 mm
01:00 AM 65.9°F18.8°C 65.3°F18.5°C 98% Calm Calm -- 29.91 in1012.9 mb - 0.00 in0.0 mm 0.00 in0.0 mm
01:10 AM 65.9°F18.8°C 65.3°F18.5°C 98% Calm Calm -- 29.91 in1012.9 mb - 0.00 in0.0 mm 0.00 in0.0 mm
01:20 AM 65.6°F18.7°C 65.0°F18.3°C 98% Calm Calm -- 29.90 in1012.5 mb - 0.00 in0.0 mm 0.00 in0.0 mm
01:30 AM 65.5°F18.6°C 64.9°F18.3°C 98% 0.2 mph NNE0.3 kmh NNE -- 29.90 in1012.5 mb - 0.00 in0.0 mm 0.00 in0.0 mm
01:40 AM 65.5°F18.6°C 65.0°F18.3°C 98% Calm Calm -- 29.90 in1012.5 mb - 0.00 in0.0 mm 0.00 in0.0 mm
01:50 AM 65.3°F18.5°C 64.8°F18.2°C 98% Calm Calm -- 29.90 in1012.5 mb - 0.00 in0.0 mm 0.00 in0.0 mm
02:00 AM 64.9°F18.3°C 64.3°F17.9°C 98% Calm Calm -- 29.90 in1012.5 mb - 0.00 in0.0 mm 0.00 in0.0 mm
02:10 AM 64.7°F18.2°C 64.1°F17.8°C 98% Calm Calm -- 29.89 in1012.2 mb - 0.00 in0.0 mm 0.00 in0.0 mm
02:20 AM 64.7°F18.2°C 64.2°F17.9°C 98% 0.4 mph W0.6 kmh W 2.6 mph4.2 kmh 29.89 in1012.2 mb - 0.00 in0.0 mm 0.00 in0.0 mm
02:30 AM 64.9°F18.3°C 64.3°F17.9°C 98% 0.1 mph W0.2 kmh W 2.6 mph4.2 kmh 29.89 in1012.2 mb - 0.00 in0.0 mm 0.00 in0.0 mm
02:40 AM 64.7°F18.2°C 64.2°F17.9°C 98% Calm Calm -- 29.89 in1012.2 mb - 0.00 in0.0 mm 0.00 in0.0 mm
02:50 AM 64.6°F18.1°C 64.0°F17.8°C 98% 0.5 mph W0.8 kmh W 2.6 mph4.2 kmh 29.89 in1012.2 mb - 0.00 in0.0 mm 0.00 in0.0 mm
03:00 AM 64.7°F18.2°C 64.1°F17.8°C 98% Calm Calm -- 29.89 in1012.2 mb - 0.00 in0.0 mm 0.00 in0.0 mm
03:10 AM 64.2°F17.9°C 63.7°F17.6°C 98% Calm Calm -- 29.89 in1012.2 mb - 0.00 in0.0 mm 0.00 in0.0 mm
03:20 AM 63.9°F17.7°C 63.3°F17.4°C 98% Calm Calm -- 29.89 in1012.2 mb - 0.00 in0.0 mm 0.00 in0.0 mm
03:30 AM 63.6°F17.6°C 63.0°F17.2°C 98% Calm Calm -- 29.89 in1012.2 mb - 0.00 in0.0 mm 0.00 in0.0 mm
03:40 AM 63.2°F17.3°C 62.7°F17.1°C 98% Calm Calm -- 29.89 in1012.2 mb - 0.00 in0.0 mm 0.00 in0.0 mm
03:50 AM 63.5°F17.5°C 62.9°F17.2°C 98% Calm Calm -- 29.90 in1012.5 mb - 0.00 in0.0 mm 0.00 in0.0 mm
04:00 AM 63.6°F17.6°C 63.0°F17.2°C 98% 0.5 mph W0.8 kmh W 1.3 mph2.1 kmh 29.90 in1012.5 mb - 0.00 in0.0 mm 0.00 in0.0 mm
04:10 AM 63.4°F17.4°C 62.8°F17.1°C 98% Calm Calm -- 29.89 in1012.2 mb - 0.00 in0.0 mm 0.00 in0.0 mm
04:20 AM 63.0°F17.2°C 62.5°F16.9°C 98% Calm Calm -- 29.89 in1012.2 mb - 0.00 in0.0 mm 0.00 in0.0 mm
04:30 AM 62.9°F17.2°C 62.3°F16.8°C 98% Calm Calm -- 29.89 in1012.2 mb - 0.00 in0.0 mm 0.00 in0.0 mm
04:40 AM 62.5°F16.9°C 61.9°F16.6°C 98% Calm Calm -- 29.89 in1012.2 mb - 0.00 in0.0 mm 0.00 in0.0 mm
04:50 AM 62.2°F16.8°C 61.6°F16.4°C 98% Calm Calm -- 29.89 in1012.2 mb - 0.00 in0.0 mm 0.00 in0.0 mm
05:00 AM 62.2°F16.8°C 61.6°F16.4°C 98% Calm Calm -- 29.90 in1012.5 mb - 0.00 in0.0 mm 0.00 in0.0 mm
05:10 AM 61.9°F16.6°C 61.4°F16.3°C 98% Calm Calm -- 29.90 in1012.5 mb - 0.00 in0.0 mm 0.00 in0.0 mm
05:20 AM 61.9°F16.6°C 61.4°F16.3°C 98% Calm Calm -- 29.90 in1012.5 mb - 0.00 in0.0 mm 0.00 in0.0 mm
05:30 AM 61.6°F16.4°C 61.0°F16.1°C 98% Calm Calm -- 29.90 in1012.5 mb - 0.00 in0.0 mm 0.00 in0.0 mm
05:40 AM 61.4°F16.3°C 60.8°F16.0°C 98% Calm Calm -- 29.90 in1012.5 mb - 0.00 in0.0 mm 0.00 in0.0 mm
05:50 AM 61.2°F16.2°C 60.6°F15.9°C 98% Calm Calm -- 29.90 in1012.5 mb - 0.00 in0.0 mm 0.00 in0.0 mm
06:00 AM 61.6°F16.4°C 61.1°F16.2°C 98% Calm Calm -- 29.91 in1012.9 mb - 0.00 in0.0 mm 0.00 in0.0 mm
06:10 AM 62.0°F16.7°C 61.5°F16.4°C 98% Calm Calm -- 29.91 in1012.9 mb - 0.00 in0.0 mm 0.00 in0.0 mm
06:20 AM 62.5°F16.9°C 61.9°F16.6°C 98% Calm Calm -- 29.91 in1012.9 mb - 0.00 in0.0 mm 0.00 in0.0 mm
06:30 AM 62.6°F17.0°C 62.1°F16.7°C 98% Calm Calm -- 29.92 in1013.2 mb - 0.00 in0.0 mm 0.00 in0.0 mm
06:40 AM 62.9°F17.2°C 62.3°F16.8°C 98% Calm Calm 2.6 mph4.2 kmh 29.92 in1013.2 mb - 0.00 in0.0 mm 0.00 in0.0 mm
06:50 AM 63.5°F17.5°C 63.0°F17.2°C 98% 0.1 mph WSW0.2 kmh WSW 2.6 mph4.2 kmh 29.93 in1013.5 mb - 0.00 in0.0 mm 0.00 in0.0 mm
07:10 AM 64.6°F18.1°C 64.1°F17.8°C 98% 0.4 mph W0.6 kmh W 1.3 mph2.1 kmh 29.93 in1013.5 mb - 0.00 in0.0 mm 0.00 in0.0 mm
07:20 AM 65.4°F18.6°C 64.8°F18.2°C 98% 0.9 mph SW1.4 kmh SW 2.6 mph4.2 kmh 29.93 in1013.5 mb - 0.00 in0.0 mm 0.00 in0.0 mm
07:30 AM 66.1°F18.9°C 65.9°F18.8°C 99% Calm Calm 2.6 mph4.2 kmh 29.94 in1013.9 mb - 0.00 in0.0 mm 0.00 in0.0 mm
07:40 AM 66.9°F19.4°C 66.6°F19.2°C 99% 0.8 mph NW1.3 kmh NW -- 29.94 in1013.9 mb - 0.00 in0.0 mm 0.00 in0.0 mm
07:50 AM 67.5°F19.7°C 67.2°F19.6°C 99% 0.9 mph SW1.4 kmh SW 1.3 mph2.1 kmh 29.95 in1014.2 mb - 0.00 in0.0 mm 0.00 in0.0 mm
08:00 AM 68.8°F20.4°C 68.5°F20.3°C 99% 1.6 mph NW2.6 kmh NW 2.6 mph4.2 kmh 29.95 in1014.2 mb - 0.00 in0.0 mm 0.00 in0.0 mm
08:10 AM 70.4°F21.3°C 70.1°F21.2°C 99% 0.4 mph NW0.6 kmh NW 2.6 mph4.2 kmh 29.95 in1014.2 mb - 0.00 in0.0 mm 0.00 in0.0 mm
08:20 AM 72.0°F22.2°C 70.8°F21.6°C 96% 1.0 mph SW1.6 kmh SW 2.6 mph4.2 kmh 29.96 in1014.6 mb - 0.00 in0.0 mm 0.00 in0.0 mm
08:30 AM 73.8°F23.2°C 71.6°F22.0°C 93% 0.7 mph NNE1.1 kmh NNE 3.9 mph6.3 kmh 29.97 in1014.9 mb - 0.00 in0.0 mm 0.00 in0.0 mm
08:40 AM 74.8°F23.8°C 70.0°F21.1°C 85% 1.8 mph WSW2.9 kmh WSW 2.6 mph4.2 kmh 29.97 in1014.9 mb - 0.00 in0.0 mm 0.00 in0.0 mm
08:50 AM 76.4°F24.7°C 75.1°F23.9°C 96% Calm Calm -- 29.98 in1015.2 mb - 0.00 in0.0 mm 0.00 in0.0 mm
09:00 AM 77.0°F25.0°C 71.4°F21.9°C 83% 2.2 mph NW3.5 kmh NW 2.6 mph4.2 kmh 29.97 in1014.9 mb - 0.00 in0.0 mm 0.00 in0.0 mm
09:10 AM 77.0°F25.0°C 67.3°F19.6°C 72% 2.5 mph E4.0 kmh E 2.6 mph4.2 kmh 29.98 in1015.2 mb - 0.00 in0.0 mm 0.00 in0.0 mm
09:20 AM 77.9°F25.5°C 67.3°F19.6°C 70% 1.2 mph S1.9 kmh S 2.6 mph4.2 kmh 29.99 in1015.6 mb - 0.00 in0.0 mm 0.00 in0.0 mm
09:30 AM 78.1°F25.6°C 66.7°F19.3°C 68% 2.2 mph NW3.5 kmh NW 2.6 mph4.2 kmh 29.99 in1015.6 mb - 0.00 in0.0 mm 0.00 in0.0 mm
09:40 AM 79.1°F26.2°C 68.0°F20.0°C 69% 1.5 mph NW2.4 kmh NW 2.6 mph4.2 kmh 29.99 in1015.6 mb - 0.00 in0.0 mm 0.00 in0.0 mm
09:50 AM 79.9°F26.6°C 68.0°F20.0°C 67% 1.1 mph NW1.8 kmh NW 2.6 mph4.2 kmh 29.99 in1015.6 mb - 0.00 in0.0 mm 0.00 in0.0 mm
10:00 AM 80.4°F26.9°C 66.2°F19.0°C 62% 1.0 mph W1.6 kmh W 2.6 mph4.2 kmh 30.00 in1015.9 mb - 0.00 in0.0 mm 0.00 in0.0 mm
10:10 AM 80.9°F27.2°C 64.7°F18.2°C 58% 1.9 mph ENE3.1 kmh ENE 3.9 mph6.3 kmh 30.00 in1015.9 mb - 0.00 in0.0 mm 0.00 in0.0 mm
10:20 AM 81.6°F27.6°C 65.9°F18.8°C 59% 1.1 mph ENE1.8 kmh ENE 2.6 mph4.2 kmh 30.00 in1015.9 mb - 0.00 in0.0 mm 0.00 in0.0 mm
10:30 AM 82.0°F27.8°C 64.7°F18.2°C 56% 1.5 mph WSW2.4 kmh WSW 3.9 mph6.3 kmh 30.01 in1016.3 mb - 0.00 in0.0 mm 0.00 in0.0 mm
10:40 AM 82.7°F28.2°C 64.4°F18.0°C 54% 2.7 mph NW4.3 kmh NW 6.5 mph10.5 kmh 30.01 in1016.3 mb - 0.00 in0.0 mm 0.00 in0.0 mm
10:50 AM 82.5°F28.1°C 64.2°F17.9°C 54% 1.8 mph ESE2.9 kmh ESE 2.6 mph4.2 kmh 30.01 in1016.3 mb - 0.00 in0.0 mm 0.00 in0.0 mm
11:00 AM 82.9°F28.3°C 66.6°F19.2°C 58% 2.9 mph NE4.7 kmh NE 5.2 mph8.4 kmh 30.01 in1016.3 mb - 0.00 in0.0 mm 0.00 in0.0 mm
11:10 AM 83.5°F28.6°C 65.1°F18.4°C 54% 2.4 mph WSW3.9 kmh WSW 5.2 mph8.4 kmh 30.01 in1016.3 mb - 0.00 in0.0 mm 0.00 in0.0 mm
11:20 AM 82.7°F28.2°C 64.3°F17.9°C 54% 2.5 mph S4.0 kmh S 2.6 mph4.2 kmh 30.01 in1016.3 mb - 0.00 in0.0 mm 0.00 in0.0 mm
11:30 AM 83.0°F28.3°C 63.6°F17.6°C 52% 3.8 mph WSW6.1 kmh WSW 5.2 mph8.4 kmh 30.01 in1016.3 mb - 0.00 in0.0 mm 0.00 in0.0 mm
11:40 AM 83.8°F28.8°C 63.8°F17.7°C 51% 1.9 mph WNW3.1 kmh WNW 6.5 mph10.5 kmh 30.01 in1016.3 mb - 0.00 in0.0 mm 0.00 in0.0 mm
11:50 AM 83.9°F28.8°C 63.3°F17.4°C 50% 1.8 mph E2.9 kmh E 2.6 mph4.2 kmh 30.01 in1016.3 mb - 0.00 in0.0 mm 0.00 in0.0 mm
12:00 PM 84.5°F29.2°C 63.9°F17.7°C 50% 2.2 mph N3.5 kmh N 2.6 mph4.2 kmh 30.01 in1016.3 mb - 0.00 in0.0 mm 0.00 in0.0 mm
12:10 PM 84.2°F29.0°C 63.6°F17.6°C 50% 0.9 mph S1.4 kmh S 2.6 mph4.2 kmh 30.01 in1016.3 mb - 0.00 in0.0 mm 0.00 in0.0 mm
12:20 PM 84.4°F29.1°C 63.2°F17.3°C 49% 2.5 mph NW4.0 kmh NW 2.6 mph4.2 kmh 30.01 in1016.3 mb - 0.00 in0.0 mm 0.00 in0.0 mm
12:30 PM 85.0°F29.4°C 63.7°F17.6°C 49% 1.7 mph ENE2.7 kmh ENE 2.6 mph4.2 kmh 30.00 in1015.9 mb - 0.00 in0.0 mm 0.00 in0.0 mm
12:40 PM 85.6°F29.8°C 61.9°F16.6°C 45% 2.7 mph SSW4.3 kmh SSW 2.6 mph4.2 kmh 30.00 in1015.9 mb - 0.00 in0.0 mm 0.00 in0.0 mm
12:50 PM 85.7°F29.8°C 63.1°F17.3°C 47% 2.4 mph NNE3.9 kmh NNE 2.6 mph4.2 kmh 30.00 in1015.9 mb - 0.00 in0.0 mm 0.00 in0.0 mm
01:00 PM 85.9°F29.9°C 63.4°F17.4°C 47% 2.3 mph S3.7 kmh S 2.6 mph4.2 kmh 30.00 in1015.9 mb - 0.00 in0.0 mm 0.00 in0.0 mm
01:10 PM 85.8°F29.9°C 63.2°F17.3°C 47% 2.4 mph NW3.9 kmh NW 5.2 mph8.4 kmh 29.99 in1015.6 mb - 0.00 in0.0 mm 0.00 in0.0 mm
01:20 PM 86.2°F30.1°C 63.6°F17.6°C 47% 2.9 mph WNW4.7 kmh WNW 3.9 mph6.3 kmh 29.99 in1015.6 mb - 0.00 in0.0 mm 0.00 in0.0 mm
01:30 PM 86.4°F30.2°C 62.5°F16.9°C 45% 2.1 mph S3.4 kmh S 3.9 mph6.3 kmh 29.99 in1015.6 mb - 0.00 in0.0 mm 0.00 in0.0 mm
01:40 PM 85.9°F29.9°C 62.7°F17.1°C 46% 2.6 mph SW4.2 kmh SW 2.6 mph4.2 kmh 29.99 in1015.6 mb - 0.00 in0.0 mm 0.00 in0.0 mm
01:50 PM 84.8°F29.3°C 61.8°F16.6°C 46% 2.1 mph N3.4 kmh N 2.6 mph4.2 kmh 29.99 in1015.6 mb - 0.00 in0.0 mm 0.00 in0.0 mm
02:00 PM 85.8°F29.9°C 62.0°F16.7°C 45% 2.4 mph W3.9 kmh W 2.6 mph4.2 kmh 30.00 in1015.9 mb - 0.00 in0.0 mm 0.00 in0.0 mm
02:10 PM 87.4°F30.8°C 63.5°F17.5°C 45% 2.3 mph N3.7 kmh N 2.6 mph4.2 kmh 30.00 in1015.9 mb - 0.00 in0.0 mm 0.00 in0.0 mm
02:20 PM 88.4°F31.3°C 63.0°F17.2°C 43% 3.1 mph W5.0 kmh W 5.2 mph8.4 kmh 30.00 in1015.9 mb - 0.00 in0.0 mm 0.00 in0.0 mm
02:30 PM 87.0°F30.6°C 61.8°F16.6°C 43% 3.3 mph W5.3 kmh W 5.2 mph8.4 kmh 30.00 in1015.9 mb - 0.00 in0.0 mm 0.00 in0.0 mm
02:40 PM 86.8°F30.4°C 61.7°F16.5°C 43% 2.8 mph WSW4.5 kmh WSW 7.8 mph12.6 kmh 30.00 in1015.9 mb - 0.00 in0.0 mm 0.00 in0.0 mm
02:50 PM 87.4°F30.8°C 61.5°F16.4°C 42% 1.2 mph S1.9 kmh S 2.6 mph4.2 kmh 30.00 in1015.9 mb - 0.00 in0.0 mm 0.00 in0.0 mm
03:00 PM 87.8°F31.0°C 61.2°F16.2°C 41% 2.1 mph NNW3.4 kmh NNW 3.9 mph6.3 kmh 30.00 in1015.9 mb - 0.00 in0.0 mm 0.00 in0.0 mm
03:10 PM 87.8°F31.0°C 62.5°F16.9°C 43% 4.0 mph SSW6.4 kmh SSW 5.2 mph8.4 kmh 30.00 in1015.9 mb - 0.00 in0.0 mm 0.00 in0.0 mm
03:20 PM 87.8°F31.0°C 61.9°F16.6°C 42% 2.5 mph W4.0 kmh W 2.6 mph4.2 kmh 30.00 in1015.9 mb - 0.00 in0.0 mm 0.00 in0.0 mm
03:30 PM 87.9°F31.1°C 61.3°F16.3°C 41% 2.5 mph W4.0 kmh W 3.9 mph6.3 kmh 30.00 in1015.9 mb - 0.00 in0.0 mm 0.00 in0.0 mm
03:40 PM 87.6°F30.9°C 61.0°F16.1°C 41% 2.3 mph SE3.7 kmh SE 2.6 mph4.2 kmh 30.01 in1016.3 mb - 0.00 in0.0 mm 0.00 in0.0 mm
03:50 PM 88.3°F31.3°C 62.3°F16.8°C 42% 2.5 mph WSW4.0 kmh WSW 5.2 mph8.4 kmh 30.01 in1016.3 mb - 0.00 in0.0 mm 0.00 in0.0 mm
04:00 PM 88.3°F31.3°C 63.6°F17.6°C 44% 2.2 mph WSW3.5 kmh WSW 2.6 mph4.2 kmh 30.01 in1016.3 mb - 0.00 in0.0 mm 0.00 in0.0 mm
04:10 PM 87.0°F30.6°C 60.5°F15.8°C 41% 1.4 mph SE2.3 kmh SE 2.6 mph4.2 kmh 30.01 in1016.3 mb - 0.00 in0.0 mm 0.00 in0.0 mm
04:20 PM 85.7°F29.8°C 60.6°F15.9°C 43% 1.0 mph S1.6 kmh S 2.6 mph4.2 kmh 30.00 in1015.9 mb - 0.00 in0.0 mm 0.00 in0.0 mm
04:30 PM 84.8°F29.3°C 64.1°F17.8°C 50% 0.2 mph SW0.3 kmh SW -- 30.00 in1015.9 mb - 0.00 in0.0 mm 0.00 in0.0 mm
04:40 PM 84.0°F28.9°C 67.1°F19.5°C 57% Calm Calm -- 30.00 in1015.9 mb - 0.00 in0.0 mm 0.00 in0.0 mm
04:50 PM 83.2°F28.4°C 67.3°F19.6°C 59% 0.9 mph SSW1.4 kmh SSW 2.6 mph4.2 kmh 30.00 in1015.9 mb - 0.00 in0.0 mm 0.00 in0.0 mm
05:00 PM 83.2°F28.4°C 66.9°F19.4°C 58% 2.0 mph SE3.2 kmh SE 2.6 mph4.2 kmh 30.00 in1015.9 mb - 0.00 in0.0 mm 0.00 in0.0 mm
05:10 PM 83.0°F28.3°C 67.7°F19.8°C 60% 1.9 mph S3.1 kmh S 2.6 mph4.2 kmh 30.00 in1015.9 mb - 0.00 in0.0 mm 0.00 in0.0 mm
05:20 PM 83.9°F28.8°C 68.6°F20.3°C 60% 2.0 mph SSW3.2 kmh SSW 5.2 mph8.4 kmh 30.00 in1015.9 mb - 0.00 in0.0 mm 0.00 in0.0 mm
05:30 PM 84.1°F28.9°C 68.7°F20.4°C 60% 2.3 mph S3.7 kmh S 2.6 mph4.2 kmh 30.00 in1015.9 mb - 0.00 in0.0 mm 0.00 in0.0 mm
05:40 PM 83.4°F28.6°C 68.1°F20.1°C 60% 2.3 mph SSE3.7 kmh SSE 2.6 mph4.2 kmh 29.99 in1015.6 mb - 0.00 in0.0 mm 0.00 in0.0 mm
05:50 PM 82.2°F27.9°C 67.9°F19.9°C 62% 1.9 mph S3.1 kmh S 2.6 mph4.2 kmh 29.99 in1015.6 mb - 0.00 in0.0 mm 0.00 in0.0 mm
06:00 PM 82.0°F27.8°C 68.6°F20.3°C 64% 2.1 mph SSW3.4 kmh SSW 2.6 mph4.2 kmh 29.99 in1015.6 mb - 0.00 in0.0 mm 0.00 in0.0 mm
06:10 PM 82.2°F27.9°C 68.3°F20.2°C 63% 2.1 mph S3.4 kmh S 2.6 mph4.2 kmh 29.99 in1015.6 mb - 0.00 in0.0 mm 0.00 in0.0 mm
06:20 PM 82.0°F27.8°C 68.6°F20.3°C 64% 1.6 mph S2.6 kmh S 2.6 mph4.2 kmh 29.99 in1015.6 mb - 0.00 in0.0 mm 0.00 in0.0 mm
06:30 PM 81.7°F27.6°C 67.9°F19.9°C 63% 1.7 mph S2.7 kmh S 2.6 mph4.2 kmh 29.99 in1015.6 mb - 0.00 in0.0 mm 0.00 in0.0 mm
06:40 PM 81.5°F27.5°C 68.6°F20.3°C 65% 1.8 mph S2.9 kmh S 5.2 mph8.4 kmh 29.99 in1015.6 mb - 0.00 in0.0 mm 0.00 in0.0 mm
06:50 PM 81.1°F27.3°C 68.6°F20.3°C 66% 1.9 mph S3.1 kmh S 2.6 mph4.2 kmh 30.00 in1015.9 mb - 0.00 in0.0 mm 0.00 in0.0 mm
07:00 PM 80.6°F27.0°C 69.1°F20.6°C 68% 0.2 mph E0.3 kmh E 2.6 mph4.2 kmh 30.00 in1015.9 mb - 0.00 in0.0 mm 0.00 in0.0 mm
07:10 PM 80.2°F26.8°C 68.7°F20.4°C 68% 0.4 mph SSE0.6 kmh SSE 1.3 mph2.1 kmh 30.00 in1015.9 mb - 0.00 in0.0 mm 0.00 in0.0 mm
07:20 PM 79.6°F26.4°C 68.9°F20.5°C 70% Calm Calm -- 30.00 in1015.9 mb - 0.00 in0.0 mm 0.00 in0.0 mm
07:30 PM 78.7°F25.9°C 69.3°F20.7°C 73% Calm Calm -- 30.00 in1015.9 mb - 0.00 in0.0 mm 0.00 in0.0 mm
07:40 PM 77.8°F25.4°C 69.3°F20.7°C 75% Calm Calm -- 30.00 in1015.9 mb - 0.00 in0.0 mm 0.00 in0.0 mm
07:50 PM 77.1°F25.1°C 69.3°F20.7°C 77% Calm Calm -- 30.01 in1016.3 mb - 0.00 in0.0 mm 0.00 in0.0 mm
08:00 PM 76.2°F24.6°C 68.9°F20.5°C 78% Calm Calm -- 30.01 in1016.3 mb - 0.00 in0.0 mm 0.00 in0.0 mm
08:10 PM 75.7°F24.3°C 69.5°F20.8°C 81% Calm Calm -- 30.01 in1016.3 mb - 0.00 in0.0 mm 0.00 in0.0 mm
08:20 PM 75.2°F24.0°C 69.4°F20.8°C 82% 0.4 mph S0.6 kmh S 1.3 mph2.1 kmh 30.01 in1016.3 mb - 0.00 in0.0 mm 0.00 in0.0 mm
08:30 PM 74.7°F23.7°C 69.2°F20.7°C 83% Calm Calm -- 30.01 in1016.3 mb - 0.00 in0.0 mm 0.00 in0.0 mm
08:40 PM 73.9°F23.3°C 68.4°F20.2°C 83% Calm Calm -- 30.01 in1016.3 mb - 0.00 in0.0 mm 0.00 in0.0 mm
08:50 PM 73.4°F23.0°C 69.0°F20.6°C 86% Calm Calm -- 30.01 in1016.3 mb - 0.00 in0.0 mm 0.00 in0.0 mm
09:00 PM 73.0°F22.8°C 68.9°F20.5°C 87% Calm Calm -- 30.01 in1016.3 mb - 0.00 in0.0 mm 0.00 in0.0 mm
09:10 PM 72.6°F22.6°C 68.9°F20.5°C 88% Calm Calm -- 30.02 in1016.6 mb - 0.00 in0.0 mm 0.00 in0.0 mm
09:20 PM 72.2°F22.3°C 69.1°F20.6°C 90% Calm Calm -- 30.02 in1016.6 mb - 0.00 in0.0 mm 0.00 in0.0 mm
09:30 PM 71.8°F22.1°C 69.1°F20.6°C 91% Calm Calm -- 30.02 in1016.6 mb - 0.00 in0.0 mm 0.00 in0.0 mm
09:40 PM 71.3°F21.8°C 68.9°F20.5°C 92% Calm Calm -- 30.02 in1016.6 mb - 0.00 in0.0 mm 0.00 in0.0 mm
09:50 PM 71.0°F21.7°C 69.2°F20.7°C 94% Calm Calm -- 30.03 in1016.9 mb - 0.00 in0.0 mm 0.00 in0.0 mm
10:00 PM 70.8°F21.6°C 69.0°F20.6°C 94% Calm Calm -- 30.03 in1016.9 mb - 0.00 in0.0 mm 0.00 in0.0 mm
10:10 PM 70.2°F21.2°C 69.0°F20.6°C 96% Calm Calm -- 30.03 in1016.9 mb - 0.00 in0.0 mm 0.00 in0.0 mm
10:20 PM 70.0°F21.1°C 69.1°F20.6°C 97% Calm Calm -- 30.03 in1016.9 mb - 0.00 in0.0 mm 0.00 in0.0 mm
10:30 PM 69.4°F20.8°C 68.6°F20.3°C 97% Calm Calm -- 30.03 in1016.9 mb - 0.00 in0.0 mm 0.00 in0.0 mm
10:40 PM 69.1°F20.6°C 68.8°F20.4°C 99% Calm Calm -- 30.03 in1016.9 mb - 0.00 in0.0 mm 0.00 in0.0 mm
10:50 PM 69.1°F20.6°C 68.8°F20.4°C 99% Calm Calm -- 30.03 in1016.9 mb - 0.00 in0.0 mm 0.00 in0.0 mm
11:00 PM 68.9°F20.5°C 68.6°F20.3°C 99% Calm Calm -- 30.03 in1016.9 mb - 0.00 in0.0 mm 0.00 in0.0 mm
11:10 PM 68.8°F20.4°C 68.5°F20.3°C 99% Calm Calm -- 30.03 in1016.9 mb - 0.00 in0.0 mm 0.00 in0.0 mm
11:20 PM 68.5°F20.3°C 68.2°F20.1°C 99% Calm Calm -- 30.03 in1016.9 mb - 0.00 in0.0 mm 0.00 in0.0 mm
11:30 PM 68.6°F20.3°C 68.4°F20.2°C 99% Calm Calm -- 30.03 in1016.9 mb - 0.00 in0.0 mm 0.00 in0.0 mm
11:40 PM 68.3°F20.2°C 68.0°F20.0°C 99% Calm Calm -- 30.04 in1017.3 mb - 0.00 in0.0 mm 0.00 in0.0 mm
11:50 PM 68.3°F20.2°C 68.0°F20.0°C 99% Calm Calm -- 30.04 in1017.3 mb - 0.00 in0.0 mm 0.00 in0.0 mm